createdAt,value
2022-10-26T00:02:09.538Z,6.25
2022-10-26T00:04:36.409Z,4.57
2022-10-26T00:07:09.393Z,5.75
2022-10-26T00:09:36.277Z,5.35
2022-10-26T00:12:10.404Z,5.68
2022-10-26T00:14:37.229Z,5.45
2022-10-26T00:17:04.122Z,5.20
2022-10-26T00:19:40.533Z,4.78
2022-10-26T00:22:07.581Z,3.92
2022-10-26T00:24:40.415Z,5.60
2022-10-26T00:27:13.396Z,5.65
2022-10-26T00:29:40.200Z,5.63
2022-10-26T00:32:07.193Z,4.85
2022-10-26T00:34:40.454Z,5.45
2022-10-26T00:37:07.277Z,4.00
2022-10-26T00:39:41.399Z,4.53
2022-10-26T00:42:19.282Z,5.63
2022-10-26T00:45:05.475Z,5.80
2022-10-26T00:47:38.672Z,5.07
2022-10-26T00:50:21.454Z,4.88
2022-10-26T00:52:50.312Z,4.70
2022-10-26T00:55:27.511Z,5.38
2022-10-26T00:58:01.536Z,4.47
2022-10-26T01:00:34.516Z,4.70
2022-10-26T01:03:12.519Z,5.55
2022-10-26T01:05:49.479Z,4.65
2022-10-26T01:08:24.746Z,4.65
2022-10-26T01:10:52.258Z,4.63
2022-10-26T01:13:25.558Z,5.88
2022-10-26T01:16:16.030Z,4.88
2022-10-26T01:19:07.502Z,4.20
2022-10-26T01:21:54.638Z,4.40
2022-10-26T01:24:46.554Z,4.43
2022-10-26T01:27:28.530Z,3.63
2022-10-26T01:30:13.777Z,4.65
2022-10-26T01:32:59.555Z,5.07
2022-10-26T01:35:36.274Z,5.43
2022-10-26T01:38:33.553Z,4.45
2022-10-26T01:41:03.351Z,4.68
2022-10-26T01:43:41.546Z,4.63
2022-10-26T01:46:10.312Z,4.43
2022-10-26T01:48:45.565Z,4.38
2022-10-26T01:51:20.544Z,4.80
2022-10-26T01:53:47.796Z,3.92
2022-10-26T01:56:36.592Z,4.13
2022-10-26T01:59:34.589Z,3.63
2022-10-26T02:02:36.570Z,4.55
2022-10-26T02:05:21.757Z,4.53
2022-10-26T02:08:03.629Z,4.15
2022-10-26T02:10:51.557Z,3.97
2022-10-26T02:13:31.600Z,3.80
2022-10-26T02:16:25.581Z,3.55
2022-10-26T02:18:58.065Z,5.30
2022-10-26T02:21:41.605Z,4.30
2022-10-26T02:24:12.030Z,3.97
2022-10-26T02:26:47.611Z,5.10
2022-10-26T02:29:18.534Z,3.80
2022-10-26T02:31:54.668Z,3.55
2022-10-26T02:34:25.849Z,6.15
2022-10-26T02:37:02.653Z,4.57
2022-10-26T02:39:32.647Z,4.78
2022-10-26T02:42:11.631Z,4.55
2022-10-26T02:44:50.638Z,4.38
2022-10-26T02:47:26.637Z,3.97
2022-10-26T02:49:54.925Z,6.07
2022-10-26T02:53:02.647Z,4.63
2022-10-26T02:55:40.609Z,4.97
2022-10-26T02:58:29.692Z,3.95
2022-10-26T03:00:58.247Z,4.10
2022-10-26T03:03:25.450Z,4.57
2022-10-26T03:05:59.750Z,4.35
2022-10-26T03:08:32.681Z,4.35
2022-10-26T03:10:59.472Z,4.20
2022-10-26T03:13:32.683Z,5.03
2022-10-26T03:15:59.634Z,4.82
2022-10-26T03:18:26.368Z,4.35
2022-10-26T03:20:59.691Z,4.68
2022-10-26T03:23:32.719Z,4.63
2022-10-26T03:26:00.041Z,6.45
2022-10-26T03:28:33.724Z,4.93
2022-10-26T03:31:00.455Z,5.00
2022-10-26T03:33:33.764Z,3.88
2022-10-26T03:36:00.611Z,3.78
2022-10-26T03:38:37.711Z,4.13
2022-10-26T03:41:05.266Z,4.03
2022-10-26T03:43:38.806Z,3.08
2022-10-26T03:46:05.521Z,4.90
2022-10-26T03:48:38.742Z,3.45
2022-10-26T03:51:05.669Z,4.57
2022-10-26T03:53:38.729Z,4.03
2022-10-26T03:56:05.936Z,3.38
2022-10-26T03:58:32.751Z,6.80
2022-10-26T04:01:05.819Z,7.95
2022-10-26T04:03:38.979Z,4.75
2022-10-26T04:06:06.063Z,5.40
2022-10-26T04:08:32.844Z,5.65
2022-10-26T04:11:05.752Z,5.57
2022-10-26T04:13:32.991Z,4.55
2022-10-26T04:15:59.840Z,3.40
2022-10-26T04:18:32.785Z,5.13
2022-10-26T04:21:02.893Z,5.90
2022-10-26T04:23:35.786Z,4.90
2022-10-26T04:26:05.389Z,3.83
2022-10-26T04:28:32.281Z,5.90
2022-10-26T04:31:05.789Z,5.07
2022-10-26T04:33:32.496Z,4.82
2022-10-26T04:36:02.374Z,3.92
2022-10-26T04:38:41.825Z,5.22
2022-10-26T04:41:15.847Z,4.57
2022-10-26T04:43:42.825Z,5.13
2022-10-26T04:46:16.822Z,3.90
2022-10-26T04:48:43.724Z,4.18
2022-10-26T04:51:16.881Z,3.42
2022-10-26T04:53:44.683Z,2.92
2022-10-26T04:56:17.854Z,3.58
2022-10-26T04:58:45.025Z,4.35
2022-10-26T05:01:25.128Z,2.92
2022-10-26T05:03:53.062Z,4.75
2022-10-26T05:06:26.862Z,4.10
2022-10-26T05:08:53.707Z,4.55
2022-10-26T05:11:26.994Z,4.70
2022-10-26T05:13:53.828Z,4.65
2022-10-26T05:16:20.639Z,3.50
2022-10-26T05:18:56.876Z,3.75
2022-10-26T05:21:23.686Z,5.38
2022-10-26T05:24:03.001Z,4.35
2022-10-26T05:26:30.359Z,3.35
2022-10-26T05:28:57.175Z,4.72
2022-10-26T05:31:30.905Z,3.17
2022-10-26T05:33:57.746Z,3.20
2022-10-26T05:36:24.699Z,3.58
2022-10-26T05:38:57.913Z,6.18
2022-10-26T05:41:30.971Z,4.10
2022-10-26T05:43:57.840Z,5.32
2022-10-26T05:46:30.994Z,4.10
2022-10-26T05:48:57.876Z,5.80
2022-10-26T05:51:24.755Z,5.20
2022-10-26T05:54:01.013Z,5.00
2022-10-26T05:56:45.965Z,5.38
2022-10-26T05:59:23.048Z,7.28
2022-10-26T06:02:10.086Z,6.25
2022-10-26T06:04:57.005Z,5.90
2022-10-26T06:07:26.428Z,4.13
2022-10-26T06:10:04.967Z,4.93
2022-10-26T06:12:39.024Z,3.92
2022-10-26T06:15:06.559Z,4.43
2022-10-26T06:18:00.967Z,4.32
2022-10-26T06:20:36.952Z,4.57
2022-10-26T06:23:48.965Z,6.47
2022-10-26T06:26:29.843Z,5.90
2022-10-26T06:29:23.991Z,5.47
2022-10-26T06:31:50.793Z,5.70
2022-10-26T06:34:39.211Z,5.45
2022-10-26T06:37:08.124Z,5.32
2022-10-26T06:39:38.770Z,5.80
2022-10-26T06:42:18.034Z,5.45
2022-10-26T06:44:45.127Z,4.25
2022-10-26T06:47:31.041Z,5.13
2022-10-26T06:50:34.029Z,6.72
2022-10-26T06:53:21.442Z,5.53
2022-10-26T06:55:57.159Z,4.20
2022-10-26T06:58:29.297Z,6.10
2022-10-26T07:00:56.991Z,4.47
2022-10-26T07:03:30.051Z,4.07
2022-10-26T07:06:03.051Z,6.32
2022-10-26T07:08:38.106Z,3.80
2022-10-26T07:11:05.729Z,4.57
2022-10-26T07:13:32.542Z,4.65
2022-10-26T07:16:06.097Z,4.22
2022-10-26T07:18:34.168Z,4.22
2022-10-26T07:21:08.094Z,4.55
2022-10-26T07:23:34.902Z,3.90
2022-10-26T07:26:08.240Z,3.83
2022-10-26T07:28:43.090Z,4.35
2022-10-26T07:31:17.104Z,6.50
2022-10-26T07:33:45.317Z,5.38
2022-10-26T07:36:19.105Z,4.75
2022-10-26T07:38:45.984Z,5.30
2022-10-26T07:41:21.118Z,5.53
2022-10-26T07:43:50.701Z,5.15
2022-10-26T07:46:18.428Z,5.13
2022-10-26T07:48:52.115Z,5.82
2022-10-26T07:51:27.200Z,6.28
2022-10-26T07:53:54.048Z,8.70
2022-10-26T07:56:27.154Z,5.65
2022-10-26T07:58:54.203Z,4.80
2022-10-26T08:01:29.185Z,6.75
2022-10-26T08:03:56.646Z,5.13
2022-10-26T08:06:23.896Z,5.72
2022-10-26T08:09:04.123Z,6.00
2022-10-26T08:11:37.196Z,5.32
2022-10-26T08:14:05.059Z,6.40
2022-10-26T08:16:38.196Z,8.00
2022-10-26T08:19:05.015Z,4.97
2022-10-26T08:21:47.170Z,5.60
2022-10-26T08:24:20.195Z,4.65
2022-10-26T08:26:53.188Z,5.18
2022-10-26T08:29:26.265Z,4.93
2022-10-26T08:31:53.066Z,3.70
2022-10-26T08:34:26.289Z,4.88
2022-10-26T08:36:54.390Z,4.75
2022-10-26T08:39:21.327Z,5.20
2022-10-26T08:42:00.172Z,4.57
2022-10-26T08:44:58.390Z,6.93
2022-10-26T08:47:44.234Z,4.65
2022-10-26T08:50:25.907Z,5.35
2022-10-26T08:53:11.225Z,5.05
2022-10-26T08:55:45.370Z,4.30
2022-10-26T08:58:28.221Z,3.28
2022-10-26T09:00:55.276Z,8.43
2022-10-26T09:03:29.357Z,7.15
2022-10-26T09:06:12.577Z,6.10
2022-10-26T09:09:00.337Z,8.57
2022-10-26T09:11:46.083Z,5.85
2022-10-26T09:14:27.248Z,4.88
2022-10-26T09:17:19.781Z,4.45
2022-10-26T09:22:50.674Z,4.07
2022-10-26T09:25:29.291Z,4.00
2022-10-26T09:28:12.370Z,8.18
2022-10-26T09:30:48.748Z,4.72
2022-10-26T09:33:25.878Z,5.90
2022-10-26T09:36:16.046Z,6.53
2022-10-26T09:39:02.443Z,6.00
2022-10-26T09:41:52.447Z,5.03
2022-10-26T09:44:33.434Z,6.40
2022-10-26T09:47:28.983Z,11.38
2022-10-26T09:50:08.451Z,6.30
2022-10-26T09:52:35.458Z,10.45
2022-10-26T09:55:09.369Z,7.68
2022-10-26T09:57:37.296Z,6.20
2022-10-26T10:00:11.333Z,10.55
2022-10-26T10:02:43.907Z,4.10
2022-10-26T10:05:51.711Z,6.80
2022-10-26T10:08:26.857Z,7.03
2022-10-26T10:11:15.426Z,8.02
2022-10-26T10:13:44.734Z,8.98
2022-10-26T10:16:31.348Z,7.85
2022-10-26T10:19:01.731Z,9.02
2022-10-26T10:21:54.555Z,9.07
2022-10-26T10:24:26.202Z,9.55
2022-10-26T10:27:11.364Z,8.00
2022-10-26T10:30:09.356Z,5.63
2022-10-26T10:33:17.429Z,8.65
2022-10-26T10:35:59.376Z,10.88
2022-10-26T10:38:33.370Z,7.35
2022-10-26T10:41:32.368Z,9.15
2022-10-26T10:44:16.584Z,12.45
2022-10-26T10:46:50.400Z,10.32
2022-10-26T10:49:25.565Z,11.80
2022-10-26T10:52:02.502Z,6.82
2022-10-26T10:54:39.997Z,8.93
2022-10-26T10:57:28.433Z,10.00
2022-10-26T11:00:01.974Z,5.68
2022-10-26T11:02:47.430Z,8.60
2022-10-26T11:05:33.557Z,8.38
2022-10-26T11:08:27.464Z,8.43
2022-10-26T11:11:11.131Z,10.07
2022-10-26T11:14:05.656Z,9.07
2022-10-26T11:16:53.598Z,8.85
2022-10-26T11:19:29.551Z,7.43
2022-10-26T11:22:12.470Z,8.32
2022-10-26T11:24:50.173Z,8.77
2022-10-26T11:27:36.477Z,7.75
2022-10-26T11:30:07.480Z,7.22
2022-10-26T11:32:56.504Z,11.50
2022-10-26T11:35:46.809Z,6.88
2022-10-26T11:41:21.454Z,6.88
2022-10-26T11:44:16.563Z,8.15
2022-10-26T11:46:48.354Z,6.55
2022-10-26T11:49:30.525Z,10.10
2022-10-26T11:52:14.605Z,9.35
2022-10-26T11:55:11.495Z,5.35
2022-10-26T11:57:38.656Z,8.05
2022-10-26T12:00:25.523Z,5.28
2022-10-26T12:03:09.297Z,6.40
2022-10-26T12:06:13.494Z,8.35
2022-10-26T12:08:50.322Z,6.35
2022-10-26T12:11:54.603Z,7.63
2022-10-26T12:14:42.482Z,7.40
2022-10-26T12:17:48.915Z,7.80
2022-10-26T12:20:31.156Z,10.43
2022-10-26T12:23:04.660Z,5.95
2022-10-26T12:25:31.447Z,6.57
2022-10-26T12:28:00.837Z,6.20
2022-10-26T12:30:39.589Z,7.35
2022-10-26T12:33:57.558Z,6.05
2022-10-26T12:36:49.292Z,5.60
2022-10-26T12:39:38.693Z,7.77
2022-10-26T12:42:08.558Z,5.78
2022-10-26T12:44:47.554Z,4.97
2022-10-26T12:47:32.475Z,7.00
2022-10-26T12:50:26.658Z,7.85
2022-10-26T12:52:56.910Z,6.60
2022-10-26T12:56:00.756Z,5.63
2022-10-26T12:58:40.498Z,5.95
2022-10-26T13:01:13.619Z,6.53
2022-10-26T13:04:13.608Z,5.18
2022-10-26T13:07:06.093Z,5.38
2022-10-26T13:12:13.635Z,7.53
2022-10-26T13:15:09.957Z,9.38
2022-10-26T13:17:44.649Z,12.20
2022-10-26T13:20:23.771Z,8.68
2022-10-26T13:22:52.349Z,7.65
2022-10-26T13:25:34.686Z,8.48
2022-10-26T13:28:05.726Z,10.18
2022-10-26T13:30:50.660Z,8.65
2022-10-26T13:33:22.157Z,8.25
2022-10-26T13:35:58.691Z,6.20
2022-10-26T13:38:38.888Z,5.63
2022-10-26T13:41:22.893Z,7.25
2022-10-26T13:43:57.756Z,6.38
2022-10-26T13:46:28.022Z,7.78
2022-10-26T13:49:10.724Z,8.40
2022-10-26T13:51:46.107Z,13.15
2022-10-26T13:54:45.694Z,5.30
2022-10-26T13:57:29.693Z,9.10
2022-10-26T14:00:06.803Z,7.82
2022-10-26T14:02:41.687Z,7.70
2022-10-26T14:05:21.682Z,8.05
2022-10-26T14:07:57.617Z,6.80
2022-10-26T14:10:37.732Z,7.30
2022-10-26T14:13:19.754Z,8.48
2022-10-26T14:15:54.031Z,6.28
2022-10-26T14:18:27.350Z,7.03
2022-10-26T14:21:10.761Z,10.40
2022-10-26T14:23:55.772Z,8.05
2022-10-26T14:26:31.727Z,7.28
2022-10-26T14:29:00.620Z,5.35
2022-10-26T14:31:35.721Z,5.05
2022-10-26T14:34:04.739Z,6.55
2022-10-26T14:36:42.772Z,4.80
2022-10-26T14:39:24.747Z,3.90
2022-10-26T14:41:54.649Z,5.55
2022-10-26T14:44:30.743Z,5.70
2022-10-26T14:47:00.440Z,4.18
2022-10-26T14:49:34.767Z,4.72
2022-10-26T14:52:06.570Z,7.63
2022-10-26T14:54:40.836Z,4.68
2022-10-26T14:57:32.121Z,3.75
2022-10-26T15:00:24.819Z,4.47
2022-10-26T15:02:58.290Z,3.55
2022-10-26T15:05:36.103Z,6.10
2022-10-26T15:08:56.848Z,3.45
2022-10-26T15:11:30.802Z,4.63
2022-10-26T15:14:05.928Z,3.88
2022-10-26T15:16:40.690Z,3.65
2022-10-26T15:19:16.837Z,5.03
2022-10-26T15:21:54.941Z,3.75
2022-10-26T15:24:35.955Z,4.72
2022-10-26T15:27:19.817Z,3.70
2022-10-26T15:29:56.841Z,2.83
2022-10-26T15:32:28.546Z,3.25
2022-10-26T15:35:33.823Z,5.07
2022-10-26T15:38:07.830Z,4.43
2022-10-26T15:40:43.988Z,5.25
2022-10-26T15:43:11.665Z,3.10
2022-10-26T15:45:58.867Z,3.10
2022-10-26T15:48:35.915Z,4.32
2022-10-26T15:51:09.874Z,3.22
2022-10-26T15:53:42.889Z,2.78
2022-10-26T15:56:18.387Z,4.53
2022-10-26T15:58:52.871Z,4.72
2022-10-26T16:01:30.939Z,4.72
2022-10-26T16:03:57.837Z,2.78
2022-10-26T16:06:38.885Z,4.60
2022-10-26T16:09:16.877Z,3.95
2022-10-26T16:11:44.581Z,4.55
2022-10-26T16:14:18.888Z,3.63
2022-10-26T16:16:45.713Z,6.22
2022-10-26T16:19:30.389Z,7.28
2022-10-26T16:21:58.624Z,2.88
2022-10-26T16:24:32.972Z,3.53
2022-10-26T16:27:05.924Z,3.22
2022-10-26T16:29:32.854Z,3.20
2022-10-26T16:32:05.935Z,3.20
2022-10-26T16:34:32.728Z,3.33
2022-10-26T16:37:05.903Z,4.53
2022-10-26T16:39:40.945Z,4.45
2022-10-26T16:42:07.857Z,5.63
2022-10-26T16:44:34.980Z,3.65
2022-10-26T16:47:07.989Z,5.88
2022-10-26T16:49:40.969Z,4.18
2022-10-26T16:52:07.762Z,5.82
2022-10-26T16:54:40.956Z,2.70
2022-10-26T16:57:08.002Z,3.35
2022-10-26T16:59:42.001Z,3.78
2022-10-26T17:02:14.514Z,4.47
2022-10-26T17:04:48.020Z,4.88
2022-10-26T17:07:20.443Z,3.58
2022-10-26T17:09:53.994Z,2.92
2022-10-26T17:12:21.076Z,4.60
2022-10-26T17:15:03.008Z,3.38
2022-10-26T17:17:34.518Z,4.00
2022-10-26T17:20:08.038Z,2.45
2022-10-26T17:22:41.217Z,6.07
2022-10-26T17:25:08.361Z,5.00
2022-10-26T17:27:46.372Z,7.07
2022-10-26T17:30:28.507Z,8.55
2022-10-26T17:33:06.108Z,5.32
2022-10-26T17:35:44.071Z,4.65
2022-10-26T17:38:13.370Z,4.32
2022-10-26T17:40:50.028Z,4.38
2022-10-26T17:43:17.559Z,4.68
2022-10-26T17:48:21.784Z,3.65
2022-10-26T17:50:55.168Z,4.80
2022-10-26T17:53:21.961Z,4.93
2022-10-26T17:55:49.681Z,5.18
2022-10-26T17:58:24.096Z,4.97
2022-10-26T18:00:50.894Z,4.00
2022-10-26T18:03:25.147Z,7.13
2022-10-26T18:05:51.993Z,5.88
2022-10-26T18:08:26.083Z,4.45
2022-10-26T18:11:05.119Z,6.28
2022-10-26T18:13:34.564Z,5.15
2022-10-26T18:16:23.120Z,5.25
2022-10-26T18:19:02.875Z,4.80
2022-10-26T18:21:44.239Z,6.00
2022-10-26T18:24:18.177Z,5.80
2022-10-26T18:26:44.965Z,6.53
2022-10-26T18:29:12.629Z,4.70
2022-10-26T18:31:46.146Z,6.18
2022-10-26T18:34:14.300Z,6.32
2022-10-26T18:36:54.287Z,4.88
2022-10-26T18:39:24.300Z,4.90
2022-10-26T18:42:01.258Z,6.78
2022-10-26T18:44:28.376Z,8.13
2022-10-26T18:47:02.197Z,6.18
2022-10-26T18:49:29.190Z,6.93
2022-10-26T18:52:07.173Z,4.03
2022-10-26T18:54:41.249Z,3.65
2022-10-26T18:57:15.182Z,4.40
2022-10-26T18:59:42.091Z,3.20
2022-10-26T19:02:21.243Z,4.00
2022-10-26T19:04:48.140Z,5.35
2022-10-26T19:07:21.349Z,4.38
2022-10-26T19:09:49.242Z,5.38
2022-10-26T19:12:23.233Z,2.83
2022-10-26T19:14:58.239Z,3.10
2022-10-26T19:17:25.218Z,2.80
2022-10-26T19:19:58.238Z,3.28
2022-10-26T19:22:31.309Z,3.97
2022-10-26T19:25:11.288Z,3.05
2022-10-26T19:27:38.253Z,3.33
2022-10-26T19:30:05.504Z,3.95
2022-10-26T19:32:39.334Z,5.75
2022-10-26T19:35:06.608Z,4.65
2022-10-26T19:37:41.256Z,5.00
2022-10-26T19:40:08.956Z,6.57
2022-10-26T19:42:56.303Z,5.97
2022-10-26T19:45:23.244Z,3.13
2022-10-26T19:47:55.934Z,4.18
2022-10-26T19:50:29.391Z,5.25
2022-10-26T19:52:56.277Z,4.03
2022-10-26T19:55:23.238Z,3.97
2022-10-26T19:57:58.293Z,3.83
2022-10-26T20:00:25.214Z,3.50
2022-10-26T20:02:58.314Z,2.90
2022-10-26T20:05:25.316Z,3.78
2022-10-26T20:07:58.287Z,4.18
2022-10-26T20:10:25.623Z,3.90
2022-10-26T20:12:52.808Z,3.67
2022-10-26T20:15:26.275Z,3.92
2022-10-26T20:17:53.122Z,4.65
2022-10-26T20:20:30.250Z,4.07
2022-10-26T20:22:58.257Z,4.00
2022-10-26T20:25:32.328Z,3.30
2022-10-26T20:27:59.172Z,3.10
2022-10-26T20:30:25.978Z,2.72
2022-10-26T20:33:03.332Z,3.13
2022-10-26T20:35:31.938Z,3.30
2022-10-26T20:38:06.350Z,3.92
2022-10-26T20:40:34.013Z,3.05
2022-10-26T20:43:07.324Z,2.92
2022-10-26T20:45:41.355Z,3.53
2022-10-26T20:48:19.453Z,4.47
2022-10-26T20:51:07.847Z,3.90
2022-10-26T20:54:01.378Z,3.30
2022-10-26T20:56:29.127Z,4.78
2022-10-26T20:59:04.334Z,4.55
2022-10-26T21:01:41.394Z,5.30
2022-10-26T21:04:18.417Z,4.38
2022-10-26T21:06:45.191Z,7.35
2022-10-26T21:09:19.501Z,4.57
2022-10-26T21:11:54.397Z,4.50
2022-10-26T21:14:21.312Z,5.15
2022-10-26T21:16:58.371Z,4.55
2022-10-26T21:19:25.148Z,3.88
2022-10-26T21:21:51.864Z,3.78
2022-10-26T21:24:25.438Z,3.30
2022-10-26T21:26:59.395Z,3.45
2022-10-26T21:29:26.452Z,5.38
2022-10-26T21:31:59.424Z,4.65
2022-10-26T21:34:33.380Z,4.20
2022-10-26T21:37:33.335Z,2.80
2022-10-26T21:40:07.450Z,3.33
2022-10-26T21:42:40.384Z,3.72
2022-10-26T21:45:07.833Z,3.60
2022-10-26T21:47:34.698Z,3.65
2022-10-26T21:50:08.385Z,3.05
2022-10-26T21:52:35.185Z,4.20
2022-10-26T21:55:08.372Z,3.15
2022-10-26T21:57:35.218Z,5.25
2022-10-26T22:00:08.379Z,3.42
2022-10-26T22:02:35.152Z,3.90
2022-10-26T22:05:01.967Z,3.17
2022-10-26T22:07:35.406Z,4.93
2022-10-26T22:10:16.974Z,4.22
2022-10-26T22:12:50.438Z,5.38
2022-10-26T22:15:25.444Z,4.35
2022-10-26T22:18:05.457Z,5.30
2022-10-26T22:20:32.490Z,4.07
2022-10-26T22:25:40.507Z,3.20
2022-10-26T22:28:13.487Z,3.33
2022-10-26T22:30:40.405Z,4.45
2022-10-26T22:33:13.454Z,3.40
2022-10-26T22:35:46.638Z,4.65
2022-10-26T22:38:20.434Z,3.47
2022-10-26T22:41:03.456Z,3.58
2022-10-26T22:43:37.567Z,3.30
2022-10-26T22:46:09.863Z,3.05
2022-10-26T22:48:43.484Z,2.95
2022-10-26T22:51:13.316Z,3.17
2022-10-26T22:53:40.448Z,3.67
2022-10-26T22:56:18.492Z,4.53
2022-10-26T22:58:52.439Z,3.35
2022-10-26T23:01:22.122Z,3.38
2022-10-26T23:03:58.476Z,3.33
2022-10-26T23:06:34.493Z,6.38
2022-10-26T23:09:01.247Z,3.75
2022-10-26T23:11:35.489Z,3.58
2022-10-26T23:14:10.548Z,3.70
2022-10-26T23:16:45.503Z,2.35
2022-10-26T23:19:12.326Z,2.70
2022-10-26T23:21:45.501Z,4.38
2022-10-26T23:24:12.357Z,3.85
2022-10-26T23:26:39.158Z,4.03
2022-10-26T23:29:12.503Z,3.95
2022-10-26T23:31:45.537Z,2.92
2022-10-26T23:34:12.402Z,3.00
2022-10-26T23:36:45.533Z,2.58
2022-10-26T23:39:19.542Z,3.35
2022-10-26T23:41:52.539Z,2.92
2022-10-26T23:44:19.406Z,1.77
2022-10-26T23:46:52.557Z,1.80
2022-10-26T23:49:25.543Z,2.05
2022-10-26T23:51:52.310Z,2.65
2022-10-26T23:54:19.152Z,2.80
2022-10-26T23:56:52.545Z,2.53
2022-10-26T23:59:26.590Z,1.80
